Terminal Aerodrome Forecast
Issued by NWS Honolulu, HI

Home | Current Version | Previous Version | Text Only | Print | Product List | Glossary On
Versions: 1 2 3 4 5 6 7 8 9 10 11 12 13 14 15 16 17 18 19 20 21 22 23 24 25 26
000
FTPA31 PHFO 260901 AAB
TAFHNL
TAF AMD
PHNL 260901Z 2609/2712 VRB05KT P6SM VCSH FEW025 BKN045
      TEMPO 2609/2611 4SM SHRA BR BKN025
     FM262000 14010KT P6SM FEW025 SCT045
     FM262200 17008KT P6SM VCSH SCT025 BKN045
     FM270500 06005KT P6SM VCSH SCT025 BKN045=

USA.gov is the U.S. government's official web portal to all federal, state and local government web resources and services.